Tiempo atmosférico en la estación meteorológica de Cabo Peñas, Asturias (100 m.)



Fecha
DESCASC
Temp. máxima en grados centígrados (hora)
DESCASC
Temp. mínima en grados centígrados (hora)
DESCASC
Temp. media en grados centígrados
DESCASC
Racha de viento máxima en m/sg (hora)
DESCASC
Velocidad máxima media en intervalos de 10 minutos(hora)
DESCASC
Precipitaciones diarias en mm
DESCASC
Precipitaciones de 00:00 a 06:00 en mm
DESCASC
Precipitaciones de 06:00 a 12:00 en mm
DESCASC
Precipitaciones de 12:00 a 18:00 en mm
DESCASC
Precipitaciones de 18:00 a 24:00 en mm
DESCASC
05-04-2020 23.6 (15:10) 13.7 (23:59) 18.7 13.33 (12:10) 6.11 (10:10) 0.2 0 0 0 0.2
04-04-2020 20.7 (12:20) 9.7 (08:00) 15.2 12.78 (00:50) 8.89 (00:50) 0 0 0 0 0
03-04-2020 14.8 (12:10) 9.1 (07:30) 12 14.17 (18:00) 9.72 (17:50) 0 0 0 0 0
02-04-2020 14.5 (13:40) 10.7 (00:00) 12.6 10.83 (01:20) 3.89 (01:40) 0 0 0 0 0
01-04-2020 14 (17:00) 9.3 (00:00) 11.7 16.39 (00:20) 11.39 (00:10) 0 0 0 0 0
31-03-2020 11.3 (23:50) 3.8 (00:00) 7.6 28.89 (12:20) 13.61 (14:10) -- -- -- -- 0
30-03-2020 11.5 (03:30) 6.1 (00:00) 8.8 22.78 (09:40) 9.72 (01:40) -- -- -- -- --
29-03-2020 13.9 (15:00) 9.7 (00:00) 11.8 18.89 (19:50) 9.72 (23:30) 0.3 0 0 0.3 0
28-03-2020 14.7 (13:10) 8.7 (00:00) 11.7 9.72 (00:20) 6.67 (00:20) 0 0 0 0 0
27-03-2020 13.5 (15:20) 7.5 (00:00) 10.5 17.22 (18:00) 10.83 (20:30) 0 0 0 0 0
26-03-2020 14 (13:20) 8.1 (00:00) 11.1 10.28 (19:30) 5.28 (23:50) 0 0 0 0 0
25-03-2020 14.7 (12:10) 10 (00:00) 12.3 9.72 (00:10) 6.67 (00:10) 0 0 0 0 0
24-03-2020 16.8 (14:50) 12.8 (00:00) 14.8 11.94 (00:20) 7.5 (18:10) 0.1 0 0.1 0 0
23-03-2020 14.2 (13:50) 12 (00:00) 13.1 12.22 (21:10) 7.78 (21:00) 0 0 0 0 0
22-03-2020 16 (14:20) 12 (05:10) 14 6.94 (17:10) 3.33 (21:00) 0.4 0 0.2 0.2 0
21-03-2020 13.6 (14:30) 11.1 (00:00) 12.4 6.11 (15:00) 2.5 (15:00) 2 0 0 2 0
20-03-2020 13.8 (14:10) 11.3 (00:00) 12.6 6.67 (19:30) 5 (19:20) 0.1 0 0.1 0 0
19-03-2020 12.8 (14:20) 11.3 (00:00) 12.1 5.28 (14:10) 3.33 (14:20) 1.8 0 0 1.5 0.3
18-03-2020 14.4 (12:20) 11.8 (00:00) 13.1 6.94 (00:50) 5 (00:40) 0.1 0 0 0 0.1
17-03-2020 13.8 (14:20) 9.3 (00:00) 11.6 11.94 (19:00) 7.5 (19:20) 0 0 0 0 0
16-03-2020 14 (12:30) 6.8 (00:00) 10.4 9.17 (12:50) 4.72 (02:20) 0.9 0.7 0.2 0 0
15-03-2020 17.9 (13:10) 6.4 (00:00) 12.1 17.78 (13:50) 10.56 (17:30) 4.3 0 0 1.1 3.2
14-03-2020 16.1 (14:50) 9.5 (00:00) 12.8 7.78 (20:20) 5.83 (21:00) 0 0 0 0 0
13-03-2020 14.5 (16:40) 10.3 (22:10) 12.4 10.83 (07:20) 6.39 (07:20) 0 0 0 0 0
12-03-2020 15 (13:40) 11.1 (00:00) 13.1 8.61 (19:10) 3.33 (09:30) 0.1 0 0 0 0.1
11-03-2020 16.4 (09:50) 11.9 (00:00) 14.1 4.72 (16:00) 3.89 (04:10) 0 0 0 0 0
10-03-2020 15.6 (15:30) 10.7 (00:00) 13.2 5 (15:10) 3.89 (15:10) 2.9 2.2 0.7 0 0
09-03-2020 14.9 (13:00) 11.4 (00:00) 13.1 16.67 (01:50) 8.61 (04:50) 0 0 0 0 0

Gráficas

Temp. máximas Temp. mínimas Temp. medias Precipitaciones Rachas de viento máximas Velocidades máximas media en intervalos de 10 minutos

Datos horarios

Fecha y hora oficial Temperatura (ºC) Velocidad del viento (km/h) Dirección del viento Racha (km/h) Dirección de racha Precipitación (mm) Presión (hPa) Tendencia (hPa) Humedad (%)
2020-04-07 23:00:00 13.2 9 Este 17 Sudeste 0 -- -- 93
2020-04-07 22:00:00 13 11 Este 21 Sudeste 0 -- -- 93
2020-04-07 21:00:00 13.3 9 Este 17 Este 0 -- -- 93
2020-04-07 20:00:00 13.6 12 Este 21 Este 0 -- -- 93
2020-04-07 19:00:00 14.2 16 Este 24 Este 0.1 -- -- 91
2020-04-07 18:00:00 14.6 18 Este 23 Este 0.1 -- -- 92
2020-04-07 17:00:00 15 15 Este 24 Este 0 -- -- 92
2020-04-07 16:00:00 15.5 16 Este 26 Este 0 -- -- 89
2020-04-07 15:00:00 14.7 18 Este 27 Este 0 -- -- 88
2020-04-07 14:00:00 15.7 20 Este 30 Este 0 -- -- 87
2020-04-07 13:00:00 15.3 17 Este 26 Este 0 -- -- 85
2020-04-07 12:00:00 15.2 19 Este 32 Sudeste 0 -- -- 85
2020-04-07 11:00:00 13.6 21 Este 32 Sudeste 0 -- -- 90
2020-04-07 10:00:00 12.6 21 Sudeste 28 Este 0 -- -- 94
2020-04-07 09:00:00 12.4 19 Este 30 Este 0 -- -- 94
2020-04-07 08:00:00 12.2 21 Este 33 Este 0 -- -- 94
2020-04-07 07:00:00 12.3 21 Este 36 Este 0 -- -- 94
2020-04-07 06:00:00 12.5 25 Este 38 Este 0 -- -- 93
2020-04-07 05:00:00 12.5 23 Este 39 Este 0 -- -- 93
2020-04-07 04:00:00 12.3 24 Este 40 Este 0 -- -- 93
2020-04-07 03:00:00 12.4 27 Este 41 Este 0 -- -- 93
2020-04-07 02:00:00 12.3 28 Este 39 Este 0 -- -- 93
2020-04-07 01:00:00 12.1 25 Este 35 Este 0 -- -- 93
2020-04-07 00:00:00 12.3 26 Este 40 Este 0 -- -- 93
2020-04-06 23:00:00 12.3 26 Este 40 Este 0 -- -- 91
2020-04-06 22:00:00 12.1 26 Este 39 Este 0 -- -- 90
2020-04-06 21:00:00 12.2 23 Este 37 Este 0 -- -- 93
2020-04-06 20:00:00 12.4 25 Este 38 Este 0 -- -- 93
2020-04-06 19:00:00 12.8 22 Este 37 Este 0 -- -- 93
2020-04-06 18:00:00 13.2 24 Este 36 Este 0 -- -- 93
2020-04-06 17:00:00 13.7 21 Este 33 Este 0 -- -- 93
2020-04-06 16:00:00 14.1 18 Este 27 Sudeste 0 -- -- 93
2020-04-06 15:00:00 13.1 18 Sudeste 24 Sudeste 0 -- -- 93
2020-04-06 14:00:00 13 15 Este 22 Este 0 -- -- 91
2020-04-06 13:00:00 12.5 15 Sudeste 21 Sudeste 0 -- -- 93
2020-04-06 12:00:00 12.5 13 Sudeste 23 Sudeste 0.1 -- -- 93
2020-04-06 11:00:00 12 14 Sudeste 20 Sudeste 0.4 -- -- 93
2020-04-06 10:00:00 12.3 5 Sudeste 10 Sudeste 0.2 -- -- 93
2020-04-06 09:00:00 12 5 Sudeste 12 Nordeste 0.3 -- -- 93
2020-04-06 08:00:00 11.7 5 Nordeste 10 Nordeste 0 -- -- 93
2020-04-06 07:00:00 12.3 7 Este 11 Este 0.2 -- -- 93
2020-04-06 06:00:00 13.2 0 Calma 14 Noroeste 0.6 -- -- 92
2020-04-06 05:00:00 13.4 6 Oeste 13 Oeste 0 -- -- 92
2020-04-06 04:00:00 13.5 9 Oeste 13 Oeste 0 -- -- 92
2020-04-06 03:00:00 13.3 10 Oeste 14 Oeste 0 -- -- 92
2020-04-06 02:00:00 13.4 9 Oeste 18 Oeste 0 -- -- 92
2020-04-06 01:00:00 13.5 13 Oeste 22 Noroeste 0 -- -- 92
2020-04-06 00:00:00 13.9 12 Noroeste 25 Noroeste 0 -- -- 92
2020-04-05 23:00:00 14.6 12 Noroeste 26 Noroeste 0 -- -- 90
2020-04-05 22:00:00 16.1 5 Norte 10 Noroeste 0 -- -- 84
2020-04-05 21:00:00 15.1 7 Este 15 Noroeste 0 -- -- 89
2020-04-05 20:00:00 16.4 7 Noroeste 23 Norte 0 -- -- 83
2020-04-05 19:00:00 15.6 3 Norte 33 Norte 0.2 -- -- 89
2020-04-05 18:00:00 19.2 7 Sudoeste 25 Noroeste 0 -- -- 60
2020-04-05 17:00:00 20.5 6 Sur 31 Sudeste 0 -- -- 55
2020-04-05 16:00:00 22.3 13 Sudeste 32 Sudeste 0 -- -- 50
2020-04-05 15:00:00 22.8 12 Sudeste 33 Sudeste 0 -- -- 51
2020-04-05 14:00:00 21.1 17 Sudeste 34 Sudeste 0 -- -- 54
2020-04-05 13:00:00 20.5 19 Sudeste 48 Sudeste 0 -- -- 53
2020-04-05 12:00:00 21.6 15 Sudeste 41 Sudeste 0 -- -- 51
2020-04-05 11:00:00 19.5 21 Sudeste 36 Sudeste 0 -- -- 54
2020-04-05 10:00:00 19.2 19 Sudeste 30 Sur 0 -- -- 54
2020-04-05 09:00:00 19.4 14 Sudeste 34 Sudeste 0 -- -- 50
2020-04-05 08:00:00 19.3 11 Sudeste 35 Sudeste 0 -- -- 49
2020-04-05 07:00:00 18.8 10 Sudeste 24 Sudeste 0 -- -- 48
2020-04-05 06:00:00 18.7 11 Sudeste 31 Sudeste 0 -- -- 46
2020-04-05 05:00:00 19 13 Sudeste 29 Sudeste 0 -- -- 45
2020-04-05 04:00:00 19.4 13 Sudeste 27 Sudeste 0 -- -- 42
2020-04-05 03:00:00 19.7 15 Sudeste 30 Sudeste 0 -- -- 40
2020-04-05 02:00:00 20.2 18 Sudeste 35 Sudeste 0 -- -- 42
2020-04-05 01:00:00 18.6 21 Sudeste 28 Sudeste 0 -- -- 48
2020-04-05 00:00:00 17.1 17 Sudeste 23 Sudeste 0 -- -- 59
2020-04-04 23:00:00 14.9 16 Sudeste 23 Sudeste 0 -- -- 67
2020-04-04 22:00:00 15.4 18 Sudeste 28 Sudeste 0 -- -- 57
2020-04-04 21:00:00 16.5 20 Sudeste 32 Sudeste 0 -- -- 45
2020-04-04 20:00:00 16.1 23 Sudeste 35 Sudeste 0 -- -- 51
2020-04-04 19:00:00 15.9 28 Sudeste 37 Sudeste 0 -- -- 58
2020-04-04 18:00:00 15.1 19 Este 31 Este 0 -- -- 82
2020-04-04 17:00:00 15.1 19 Este 27 Este 0 -- -- 83
2020-04-04 16:00:00 15.4 20 Sudeste 28 Este 0 -- -- 87
2020-04-04 15:00:00 15.3 18 Este 24 Este 0 -- -- 85
2020-04-04 14:00:00 15.5 16 Sudeste 23 Sudeste 0 -- -- 84
2020-04-04 13:00:00 15.7 13 Sudeste 18 Sudeste 0 -- -- 75
2020-04-04 12:00:00 20.1 5 Sur 19 Sudoeste 0 -- -- 39
2020-04-04 11:00:00 18 5 Sur 17 Sur 0 -- -- 45
2020-04-04 10:00:00 15 6 Sudeste 17 Sudeste 0 -- -- 61
2020-04-04 09:00:00 11.2 13 Sudeste 22 Sudeste 0 -- -- 78
2020-04-04 08:00:00 9.7 19 Sudeste 26 Sudeste 0 -- -- 89
2020-04-04 07:00:00 10.1 21 Sudeste 27 Sudeste 0 -- -- 92
2020-04-04 06:00:00 10.4 19 Este 26 Este 0 -- -- 92
2020-04-04 05:00:00 10 14 Este 22 Sudeste 0 -- -- 90
2020-04-04 04:00:00 10 18 Sudeste 25 Sudeste 0 -- -- 91
2020-04-04 03:00:00 10.1 22 Sudeste 38 Sudeste 0 -- -- 91
2020-04-04 02:00:00 10.5 28 Sudeste 41 Sudeste 0 -- -- 91
2020-04-04 01:00:00 11.1 31 Sudeste 46 Sudeste 0 -- -- 91
2020-04-04 00:00:00 11.3 30 Este 44 Este 0 -- -- 89
2020-04-03 23:00:00 11.2 32 Este 46 Este 0 -- -- 89
2020-04-03 22:00:00 11.4 32 Este 45 Este 0 -- -- 88
2020-04-03 21:00:00 11.6 32 Este 49 Este 0 -- -- 85
2020-04-03 20:00:00 12 31 Este 46 Este 0 -- -- 79
2020-04-03 19:00:00 13 31 Este 50 Este 0 -- -- 74
2020-04-03 18:00:00 13.3 33 Este 51 Este 0 -- -- 69
2020-04-03 17:00:00 14.2 32 Este 49 Este 0 -- -- 66
2020-04-03 16:00:00 14 28 Este 42 Este 0 -- -- 67
2020-04-03 15:00:00 13.3 28 Este 43 Este 0 -- -- 67
2020-04-03 14:00:00 13.6 30 Este 44 Este 0 -- -- 70
2020-04-03 13:00:00 14.3 26 Este 36 Este 0 -- -- 70
2020-04-03 12:00:00 14.1 21 Este 30 Este 0 -- -- 68
2020-04-03 11:00:00 13.6 17 Este 24 Sudeste 0 -- -- 73
2020-04-03 10:00:00 12.1 15 Este 23 Este 0 -- -- 74
2020-04-03 09:00:00 10.2 13 Sudeste 23 Este 0 -- -- 81
2020-04-03 08:00:00 9.9 16 Este 22 Este 0 -- -- 78
2020-04-03 07:00:00 10.1 14 Sudeste 24 Este 0 -- -- 78
2020-04-03 06:00:00 10.7 13 Este 24 Este 0 -- -- 76
2020-04-03 05:00:00 10.6 12 Sudeste 22 Sur 0 -- -- 74
2020-04-03 04:00:00 10.9 13 Este 23 Este 0 -- -- 73
2020-04-03 03:00:00 10.8 8 Este 22 Este 0 -- -- 68
2020-04-03 02:00:00 10.8 6 Este 22 Nordeste 0 -- -- 70
2020-04-03 01:00:00 10.7 8 Este 20 Sudeste 0 -- -- 71
2020-04-03 00:00:00 10.8 7 Sudeste 21 Sudeste 0 -- -- 74
2020-04-02 23:00:00 10.9 8 Sudeste 24 Sudeste 0 -- -- 78
2020-04-02 22:00:00 11.2 8 Este 20 Sudeste 0 -- -- 79
2020-04-02 21:00:00 11.4 6 Sudeste 19 Este 0 -- -- 81
2020-04-02 20:00:00 12.2 6 Sudeste 18 Este 0 -- -- 79
2020-04-02 19:00:00 12.6 8 Sudeste 20 Sudeste 0 -- -- 77
2020-04-02 18:00:00 13.2 9 Sudeste 27 Este 0 -- -- 76
2020-04-02 17:00:00 13.3 9 Este 26 Este 0 -- -- 73
2020-04-02 16:00:00 13.1 7 Este 24 Nordeste 0 -- -- 70
2020-04-02 15:00:00 13.6 8 Este 23 Nordeste 0 -- -- 76
2020-04-02 14:00:00 13.5 10 Este 24 Sudeste 0 -- -- 80
2020-04-02 13:00:00 13.2 11 Este 34 Este 0 -- -- 84
2020-04-02 12:00:00 12.7 12 Este 34 Nordeste 0 -- -- 88
2020-04-02 11:00:00 12.7 12 Este 34 Nordeste 0 -- -- 83
2020-04-02 10:00:00 12.6 9 Sudeste 32 Nordeste 0 -- -- 87
2020-04-02 09:00:00 12.5 12 Este 33 Este 0 -- -- 87
2020-04-02 08:00:00 12.4 11 Este 34 Este 0 -- -- 90
2020-04-02 07:00:00 12.5 8 Este 25 Este 0 -- -- 91
2020-04-02 06:00:00 12.5 10 Nordeste 26 Nordeste 0 -- -- 90
2020-04-02 05:00:00 12.4 8 Este 29 Este 0 -- -- 93
2020-04-02 04:00:00 12.5 10 Este 31 Norte 0 -- -- 93
2020-04-02 03:00:00 12.4 11 Este 35 Nordeste 0 -- -- 93
2020-04-02 02:00:00 12.5 12 Este 39 Este 0 -- -- 94
2020-04-02 01:00:00 12.5 13 Este 34 Nordeste 0 -- -- 93
2020-04-02 00:00:00 12.6 10 Este 27 Sudeste 0 -- -- 93
2020-04-01 23:00:00 12.5 7 Este 29 Nordeste 0 -- -- 93
2020-04-01 22:00:00 12.4 10 Este 27 Este 0 -- -- 93
2020-04-01 21:00:00 12.6 12 Sudeste 27 Sudeste 0 -- -- 92
2020-04-01 20:00:00 12.8 8 Sudeste 18 Sudeste 0 -- -- 93
2020-04-01 19:00:00 13.2 10 Este 23 Sudeste 0 -- -- 91
2020-04-01 18:00:00 13.4 9 Sudeste 21 Sudeste 0 -- -- 90
2020-04-01 17:00:00 13.8 5 Este 18 Este 0 -- -- 90
2020-04-01 16:00:00 13 9 Noroeste 18 Noroeste 0 -- -- 90
2020-04-01 15:00:00 12.9 8 Noroeste 16 Oeste 0 -- -- 88
2020-04-01 14:00:00 12.9 10 Oeste 17 Oeste 0 -- -- 87
2020-04-01 13:00:00 12.3 13 Oeste 19 Sudoeste 0 -- -- 88
2020-04-01 12:00:00 11.7 14 Oeste 18 Sudoeste 0 -- -- 88
2020-04-01 11:00:00 11 13 Sudoeste 17 Sudoeste 0 -- -- 89
2020-04-01 10:00:00 10 9 Sudoeste 13 Sudoeste 0 -- -- 92
2020-04-01 09:00:00 9.9 0 Calma 6 Sur 0 -- -- 90
2020-04-01 08:00:00 9.9 0 Calma 11 Sudeste 0 -- -- 89
2020-04-01 07:00:00 9.7 7 Sudeste 14 Sudeste 0 -- -- 92
2020-04-01 06:00:00 10.5 12 Sudeste 23 Sudeste 0 -- -- 92
2020-04-01 05:00:00 10.5 17 Este 31 Este 0 -- -- 92
2020-04-01 04:00:00 10.7 24 Este 41 Este 0 -- -- 92
2020-04-01 03:00:00 10.6 29 Este 44 Este 0 -- -- 92
2020-04-01 02:00:00 11.3 33 Este 51 Este 0 -- -- 90
2020-04-01 01:00:00 11.4 36 Este 59 Este 0 -- -- 91
2020-04-01 00:00:00 11.2 42 Este 68 Este 0 -- -- 89
2020-03-31 23:00:00 11 40 Este 64 Este 0 -- -- 90
2020-03-31 22:00:00 10.5 41 Este 66 Este 0 -- -- 90
2020-03-31 21:00:00 10.2 42 Este 68 Este 0 -- -- 89
2020-03-31 20:00:00 9.9 44 Este 70 Este 0 -- -- 89
2020-03-31 19:00:00 9.8 42 Este 71 Este 0 -- -- 89
2020-03-31 18:00:00 9.6 41 Este 76 Este 0 -- -- 88
2020-03-31 17:00:00 9.5 45 Este 76 Este 0 -- -- 88
2020-03-31 16:00:00 9.3 48 Este 79 Este 0 -- -- 87
2020-03-31 15:00:00 9.2 46 Este 79 Este 0 -- -- 87
2020-03-31 14:00:00 9 47 Este 73 Este -- -- -- 87
2020-03-31 13:00:00 8.6 48 Este -- -- -- -- -- 85
2020-03-31 12:00:00 8.7 43 Este 68 Este 0 -- -- 80
2020-03-31 11:00:00 9.3 41 Este 62 Este 0 -- -- 76
2020-03-31 10:00:00 6.6 15 Sudeste 22 Sudeste 0 -- -- 93
2020-03-31 09:00:00 4.9 6 Sudeste 15 Sudeste 0 -- -- 94
2020-03-31 08:00:00 4.3 5 Sudeste 13 Sudeste 0 -- -- 93
2020-03-31 07:00:00 4.2 3 Sudeste 18 Sudeste 0 -- -- 93
2020-03-31 06:00:00 4.3 8 Sudeste 18 Sudeste 0 -- -- 93
2020-03-31 05:00:00 4.5 4 Sur 22 Sudeste 0 -- -- 93
2020-03-31 04:00:00 4.7 13 Sudeste 28 Sudeste 0 -- -- 93
2020-03-31 03:00:00 6.3 8 Sudeste 46 Este 0 -- -- 88
2020-03-31 02:00:00 7.5 20 Sudeste 47 Sudeste 0 -- -- 80
2020-03-31 01:00:00 7.6 21 Sudeste 51 Nordeste 0 -- -- 80
2020-03-31 00:00:00 7.7 21 Este 51 Este 0 -- -- 82
2020-03-30 23:00:00 7.2 22 Sudeste 52 Este 0 -- -- 85
2020-03-30 22:00:00 7.3 23 Este 58 Este 0 -- -- 88
2020-03-30 21:00:00 7.6 22 Este 54 Nordeste 0 -- -- 85
2020-03-30 20:00:00 7.7 19 Este 57 Sudeste 0 -- -- 78
2020-03-30 19:00:00 8.4 23 Sudeste 53 Sudeste 0 -- -- 76
2020-03-30 18:00:00 9.1 18 Sudeste 46 Este 0 -- -- 69
2020-03-30 17:00:00 8.4 21 Sudeste 62 Nordeste 0 -- -- 72
2020-03-30 16:00:00 7.7 22 Este 53 Sudeste 0 -- -- 76
2020-03-30 15:00:00 8.4 22 Sudeste 50 Sudeste 0 -- -- 69
2020-03-30 14:00:00 9 19 Este 59 Nordeste 0 -- -- 67
2020-03-30 13:00:00 7.9 20 Este 67 Este 0 -- -- 74
2020-03-30 12:00:00 8.8 19 Este 69 Nordeste 0 -- -- 65
2020-03-30 11:00:00 8.6 23 Este 64 Este 0 -- -- 66
2020-03-30 10:00:00 7.9 22 Este 82 Este 0 -- -- 68
2020-03-30 09:00:00 9.3 23 Sudeste 50 Este 0 -- -- 62
2020-03-30 08:00:00 8.8 26 Sudeste 57 Este 0 -- -- 72
2020-03-30 07:00:00 9.6 25 Este 57 Este 0 -- -- 67
2020-03-30 06:00:00 10 27 Sudeste 55 Sudeste 0 -- -- 70
2020-03-30 05:00:00 9.8 26 Este 71 Este 0 -- -- 71
2020-03-30 04:00:00 10.8 21 Este 53 Sudeste 0 -- -- 57
2020-03-30 03:00:00 11.3 30 Este 55 Sudeste 0 -- -- 54
2020-03-30 02:00:00 10 30 Este 66 Sudeste 0 -- -- 79
2020-03-30 01:00:00 10.5 28 Sudeste 59 Este 0 -- -- 71
2020-03-30 00:00:00 10.3 28 Este 63 Este 0 -- -- 76
2020-03-29 23:00:00 10.6 27 Este 61 Sudeste 0 -- -- 71
2020-03-29 22:00:00 10.4 34 Este 57 Este 0 -- -- 81
2020-03-29 21:00:00 10.4 28 Sudeste 58 Sudeste 0 -- -- 80
2020-03-29 20:00:00 10.5 24 Sudeste 68 Sudeste 0 -- -- 86
2020-03-29 19:00:00 11.3 26 Sudeste 56 Sudeste 0 -- -- 88
2020-03-29 18:00:00 12.1 28 Sudeste 53 Sudeste 0.2 -- -- 90
2020-03-29 17:00:00 12.1 23 Sudeste 46 Este 0 -- -- 88
2020-03-29 16:00:00 13.4 15 Este 27 Este 0 -- -- 72
2020-03-29 15:00:00 13.6 15 Este 27 Sudeste 0.1 -- -- 72
2020-03-29 14:00:00 12.9 16 Este 27 Sudeste 0 -- -- 75
2020-03-29 13:00:00 12.2 15 Este 34 Sudeste 0 -- -- 77
2020-03-29 12:00:00 11.8 14 Sudeste 34 Sudeste 0 -- -- 81
2020-03-29 11:00:00 11.7 17 Sudeste 36 Sudeste 0 -- -- 84
2020-03-29 10:00:00 12.2 10 Este 25 Sudeste 0 -- -- 85
2020-03-29 09:00:00 11.8 13 Sudeste 29 Sudeste 0 -- -- 85
2020-03-29 08:00:00 11.6 15 Este 26 Este 0 -- -- 89
2020-03-29 07:00:00 11.8 9 Sudeste 21 Sudeste 0 -- -- 84
2020-03-29 06:00:00 11.6 8 Este 15 Este 0 -- -- 89
2020-03-29 05:00:00 11.5 8 Este 21 Este 0 -- -- 88
2020-03-29 03:00:00 11.9 12 Este 26 Este 0 -- -- 83
2020-03-29 01:00:00 12 13 Sudeste 25 Sudeste 0 -- -- 83
2020-03-29 00:00:00 12.2 13 Sudeste 29 Este 0 -- -- 81
2020-03-28 23:00:00 12.1 14 Sudeste 24 Este 0 -- -- 81
2020-03-28 22:00:00 12.1 16 Este 27 Este 0 -- -- 79
2020-03-28 21:00:00 12.3 15 Este 28 Este 0 -- -- 80
2020-03-28 20:00:00 12.6 14 Este 30 Nordeste 0 -- -- 82
2020-03-28 19:00:00 12.5 17 Este 31 Este 0 -- -- 85
2020-03-28 18:00:00 13.2 17 Este 34 Este 0 -- -- 82
2020-03-28 17:00:00 13.5 18 Sudeste 34 Este 0 -- -- 82
2020-03-28 16:00:00 13.5 19 Sudeste 32 Este 0 -- -- 80
2020-03-28 15:00:00 13.7 14 Este 27 Este 0 -- -- 79
2020-03-28 14:00:00 14.1 13 Este 22 Este 0 -- -- 78
2020-03-28 13:00:00 14.5 13 Este 17 Este 0 -- -- 77
2020-03-28 12:00:00 13.7 11 Este 16 Este 0 -- -- 77
2020-03-28 11:00:00 12.7 9 Este 13 Este 0 -- -- 75
2020-03-28 10:00:00 12.1 8 Este 13 Este 0 -- -- 73
2020-03-28 09:00:00 11.7 6 Sudeste 12 Sudeste 0 -- -- 76
2020-03-28 08:00:00 9.5 9 Sudeste 16 Sudeste 0 -- -- 79
2020-03-28 07:00:00 8.9 13 Sudeste 22 Sudeste 0 -- -- 79
2020-03-28 06:00:00 8.8 16 Sudeste 22 Sudeste 0 -- -- 82
2020-03-28 05:00:00 8.9 17 Sudeste 23 Sudeste 0 -- -- 81
2020-03-28 04:00:00 9.4 18 Sudeste 27 Sudeste 0 -- -- 83
2020-03-28 03:00:00 9.8 17 Este 69 Sudeste 0 -- -- 84
2020-03-28 02:00:00 10.3 20 Sudeste 35 Sudeste 0 -- -- 82
2020-03-28 01:00:00 10.6 23 Este 35 Este 0 -- -- 81
2020-03-28 00:00:00 11 25 Este 47 Este 0 -- -- 80
2020-03-27 23:00:00 11.4 35 Este 53 Este 0 -- -- 76
2020-03-27 22:00:00 11.6 36 Este 56 Este 0 -- -- 74
2020-03-27 21:00:00 11.7 34 Este 58 Este 0 -- -- 72
2020-03-27 20:00:00 11.6 36 Este 57 Este 0 -- -- 72
2020-03-27 19:00:00 11.9 35 Este 58 Este 0 -- -- 74
2020-03-27 18:00:00 12.2 36 Este 62 Este 0 -- -- 71
2020-03-27 17:00:00 12.7 35 Este 54 Este 0 -- -- 66
2020-03-27 16:00:00 12.8 31 Este 54 Este 0 -- -- 65
2020-03-27 15:00:00 13.1 30 Este 51 Este 0 -- -- 64
2020-03-27 14:00:00 11.9 26 Este 45 Este 0 -- -- 65
2020-03-27 13:00:00 12.8 28 Este 43 Este 0 -- -- 60
2020-03-27 12:00:00 12.9 26 Este 49 Este 0 -- -- 61
2020-03-27 11:00:00 13.1 19 Este 28 Este 0 -- -- 61
2020-03-27 10:00:00 11.7 18 Este 25 Este 0 -- -- 59
2020-03-27 09:00:00 10.6 12 Sudeste 16 Sudeste 0 -- -- 61
2020-03-27 08:00:00 8.4 10 Sudeste 17 Sudeste 0 -- -- 66
2020-03-27 07:00:00 8.4 13 Sudeste 17 Sudeste 0 -- -- 66
2020-03-27 06:00:00 8.2 13 Sudeste 21 Sudeste 0 -- -- 67
2020-03-27 05:00:00 8.7 15 Sudeste 21 Sudeste 0 -- -- 65
2020-03-27 04:00:00 8.6 13 Sudeste 34 Este 0 -- -- 65
2020-03-27 03:00:00 10.1 20 Este 37 Este 0 -- -- 60
2020-03-27 02:00:00 10.1 18 Este 34 Sudeste 0 -- -- 59
2020-03-27 01:00:00 10.2 18 Este 33 Este 0 -- -- 61
2020-03-27 00:00:00 10 16 Sudeste 32 Sudeste 0 -- -- 59
2020-03-26 23:00:00 10.1 14 Sudeste 30 Este 0 -- -- 60
2020-03-26 22:00:00 10.4 10 Este 31 Este 0 -- -- 61
2020-03-26 21:00:00 10.7 12 Este 32 Sudeste 0 -- -- 66
2020-03-26 20:00:00 11.3 12 Este 37 Este 0 -- -- 64
2020-03-26 19:00:00 11.8 5 Noroeste 18 Noroeste 0 -- -- 67
2020-03-26 18:00:00 12 8 Noroeste 17 Noroeste 0 -- -- 64
2020-03-26 17:00:00 12.7 6 Noroeste 17 Noroeste 0 -- -- 60
2020-03-26 16:00:00 12.7 4 Noroeste 18 Noroeste 0 -- -- 59
2020-03-26 15:00:00 13.1 4 Noroeste 13 Norte 0 -- -- 59
2020-03-26 14:00:00 13.7 3 Este 11 Sudeste 0 -- -- 60
2020-03-26 13:00:00 12.7 5 Este 18 Este 0 -- -- 58
2020-03-26 12:00:00 13.1 4 Sudeste 13 Sudoeste 0 -- -- 58
2020-03-26 11:00:00 11.7 5 Noroeste 13 Oeste 0 -- -- 65
2020-03-26 10:00:00 10.8 6 Noroeste 11 Noroeste 0 -- -- 68
2020-03-26 09:00:00 9.6 7 Sudoeste 11 Sudoeste 0 -- -- 81
2020-03-26 08:00:00 8.5 6 Oeste 9 Sudoeste 0 -- -- 75
2020-03-26 07:00:00 8.8 5 Noroeste 14 Oeste 0 -- -- 65
2020-03-26 06:00:00 9.3 4 Sudeste 14 Este 0 -- -- 69
2020-03-26 05:00:00 9.6 5 Este 15 Este 0 -- -- 72
2020-03-26 04:00:00 9.4 5 Este 12 Sudeste 0 -- -- 74
2020-03-26 03:00:00 9.6 5 Este 14 Sudeste 0 -- -- 73
2020-03-26 02:00:00 9.9 3 Este 13 Este 0 -- -- 71
2020-03-26 01:00:00 10.5 4 Este 17 Sudeste 0 -- -- 68
2020-03-26 00:00:00 10.2 4 Este 12 Sudeste 0 -- -- 77
2020-03-25 23:00:00 11 4 Este 14 Este 0 -- -- 74
2020-03-25 22:00:00 10.9 6 Sudeste 13 Este 0 -- -- 76
2020-03-25 21:00:00 10.9 5 Sudeste 12 Este 0 -- -- 79
2020-03-25 20:00:00 11.6 8 Este 18 Este 0 -- -- 82
2020-03-25 19:00:00 12.1 11 Este 26 Este 0 -- -- 82
2020-03-25 18:00:00 12.8 17 Este 26 Este 0 -- -- 83
2020-03-25 17:00:00 13.6 14 Este 24 Nordeste 0 -- -- 86
2020-03-25 16:00:00 14 9 Este 20 Sudeste 0 -- -- 87
2020-03-25 15:00:00 13.8 7 Este 24 Este 0 -- -- 89
2020-03-25 14:00:00 13.9 8 Este 19 Sudeste 0 -- -- 89
2020-03-25 13:00:00 14 8 Este 14 Este 0 -- -- 89
2020-03-25 12:00:00 14.2 9 Este 19 Este 0 -- -- 89
2020-03-25 11:00:00 13.6 9 Este 18 Sudeste 0 -- -- 91
2020-03-25 10:00:00 13.3 7 Este 19 Este 0 -- -- 94
2020-03-25 09:00:00 12.4 14 Este 20 Este 0 -- -- 94
2020-03-25 08:00:00 12.3 10 Este 18 Este 0 -- -- 94
2020-03-25 07:00:00 11.5 12 Sudeste 17 Sudeste 0 -- -- 94
2020-03-25 06:00:00 11.5 12 Sudeste 18 Sudeste 0 -- -- 94
2020-03-25 05:00:00 12.1 13 Este 22 Este 0 -- -- 94
2020-03-25 04:00:00 12.2 15 Este 23 Sudeste 0 -- -- 94
2020-03-25 03:00:00 12.7 17 Este 27 Este 0 -- -- 94
2020-03-25 02:00:00 12.9 19 Este 28 Este 0 -- -- 94
2020-03-25 01:00:00 13 20 Este 35 Este 0 -- -- 94
2020-03-25 00:00:00 13.1 23 Este 35 Este 0 -- -- 93
2020-03-24 23:00:00 13.4 24 Este 35 Este 0 -- -- 93
2020-03-24 22:00:00 13.3 22 Este 32 Este 0 -- -- 93
2020-03-24 21:00:00 13.5 22 Este 31 Este 0 -- -- 93
2020-03-24 20:00:00 13.7 21 Este 36 Este 0 -- -- 93
2020-03-24 19:00:00 13.6 24 Este 35 Este 0 -- -- 91
2020-03-24 18:00:00 14.4 26 Este 35 Este 0 -- -- 88
2020-03-24 17:00:00 14.3 21 Este 35 Este 0 -- -- 88
2020-03-24 16:00:00 14.5 15 Este 27 Nordeste 0 -- -- 87
2020-03-24 15:00:00 15.9 16 Este 26 Este 0 -- -- 84
2020-03-24 14:00:00 15.9 19 Este 27 Este 0 -- -- 86
2020-03-24 13:00:00 14.6 10 Este 24 Este 0 -- -- 88
2020-03-24 12:00:00 14.6 8 Este 17 Este 0.1 -- -- 84
2020-03-24 11:00:00 15.3 10 Este 20 Este 0 -- -- 85
2020-03-24 10:00:00 13.9 16 Sudeste 32 Este 0 -- -- 90
2020-03-24 09:00:00 13.7 20 Este 35 Este 0 -- -- 93
2020-03-24 08:00:00 13.4 18 Este 33 Este 0 -- -- 93
2020-03-24 07:00:00 13.4 20 Este 36 Este 0 -- -- 93
2020-03-24 06:00:00 13.4 21 Este 39 Este 0 -- -- 93
2020-03-24 05:00:00 13.3 24 Este 41 Este 0 -- -- 93
2020-03-24 04:00:00 13.2 23 Este 39 Este 0 -- -- 93
2020-03-24 03:00:00 13.1 26 Este 41 Este 0 -- -- 91
2020-03-24 02:00:00 13 24 Este 42 Este 0 -- -- 91
2020-03-24 01:00:00 12.9 26 Este 43 Este 0 -- -- 91
2020-03-24 00:00:00 13 25 Este 38 Este 0 -- -- 91
2020-03-23 23:00:00 12.9 22 Este 40 Este 0 -- -- 90
2020-03-23 22:00:00 12.9 27 Este 44 Este 0 -- -- 89
2020-03-23 21:00:00 12.7 28 Este 44 Este 0 -- -- 89
2020-03-23 20:00:00 12.9 26 Este 42 Este 0 -- -- 87
2020-03-23 19:00:00 13.1 22 Este 38 Este 0 -- -- 85
2020-03-23 18:00:00 13.3 22 Este 38 Este 0 -- -- 85
2020-03-23 17:00:00 13.5 19 Este 33 Sudeste 0 -- -- 88
2020-03-23 16:00:00 13.6 20 Este 33 Sudeste 0 -- -- 88
2020-03-23 15:00:00 13.6 19 Sudeste 31 Sudeste 0 -- -- 89
2020-03-23 14:00:00 13.7 14 Sudeste 27 Sudeste 0 -- -- 89
2020-03-23 13:00:00 13 14 Sudeste 28 Nordeste 0 -- -- 90
2020-03-23 12:00:00 12.6 16 Este 29 Este 0 -- -- 91
2020-03-23 11:00:00 12.6 17 Este 29 Este 0 -- -- 91
2020-03-23 10:00:00 12.5 14 Sudeste 26 Este 0 -- -- 91
2020-03-23 09:00:00 12.3 13 Sudeste 27 Sudeste 0 -- -- 91
2020-03-23 08:00:00 12.1 10 Sudeste 24 Sudeste 0 -- -- 91
2020-03-23 07:00:00 12.2 12 Sudeste 23 Este 0 -- -- 91
2020-03-23 06:00:00 12.3 8 Este 22 Sudeste 0 -- -- 91
2020-03-23 05:00:00 12.1 11 Sudeste 22 Sudeste 0 -- -- 91
2020-03-23 04:00:00 12.2 10 Sudeste 21 Este 0 -- -- 91
2020-03-23 03:00:00 12.2 9 Este 22 Sudeste 0 -- -- 91
2020-03-23 02:00:00 12.2 14 Este 22 Este 0 -- -- 91
2020-03-23 01:00:00 12.2 11 Sudeste 26 Este 0 -- -- 91
2020-03-23 00:00:00 12.4 9 Este 22 Sudeste 0 -- -- 91
2020-03-22 23:00:00 12.5 8 Este 17 Sudeste 0 -- -- 90
2020-03-22 22:00:00 12.4 11 Sudeste 24 Este 0 -- -- 91
2020-03-22 21:00:00 12.6 12 Sudeste 24 Sudeste 0 -- -- 91
2020-03-22 20:00:00 12.8 7 Sudeste 19 Sudeste 0 -- -- 91
2020-03-22 19:00:00 12.9 10 Sudeste 23 Sudeste 0 -- -- 91
2020-03-22 18:00:00 13.2 10 Sudeste 25 Nordeste 0.1 -- -- 91
2020-03-22 17:00:00 13.8 9 Este 20 Este 0 -- -- 91
2020-03-22 16:00:00 14.4 5 Sudeste 16 Sur 0 -- -- 88
2020-03-22 15:00:00 15.2 5 Sur 13 Sur 0 -- -- 83
2020-03-22 14:00:00 15.4 0 Calma 16 Norte 0.1 -- -- 83
2020-03-22 13:00:00 14.6 5 Noroeste 13 Noroeste 0 -- -- 87
2020-03-22 12:00:00 14.6 5 Noroeste 13 Oeste 0 -- -- 88
2020-03-22 11:00:00 13.8 7 Oeste 13 Oeste 0 -- -- 90
2020-03-22 10:00:00 13.5 8 Oeste 11 Oeste 0 -- -- 92
2020-03-22 09:00:00 13 6 Sudoeste 8 Sudoeste 0 -- -- 92
2020-03-22 08:00:00 13.1 3 Noroeste 6 Noroeste 0.2 -- -- 90
2020-03-22 07:00:00 12.9 4 Noroeste 9 Noroeste 0 -- -- 90
2020-03-22 06:00:00 12.8 6 Noroeste 10 Oeste 0 -- -- 91
2020-03-22 05:00:00 12.3 6 Oeste 8 Oeste 0 -- -- 91
2020-03-22 04:00:00 12.5 3 Sudoeste 12 Oeste 0 -- -- 91
2020-03-22 03:00:00 12.7 7 Oeste 12 Oeste 0 -- -- 91
2020-03-22 02:00:00 12.7 5 Oeste 10 Oeste 0 -- -- 90
2020-03-22 01:00:00 12.6 4 Oeste 9 Oeste 0 -- -- 90
2020-03-22 00:00:00 12.4 5 Oeste 13 Oeste 0 -- -- 90
2020-03-21 23:00:00 12.4 7 Oeste 14 Oeste 0 -- -- 90
2020-03-21 22:00:00 12.7 7 Oeste 13 Oeste 0 -- -- 89
2020-03-21 21:00:00 12.7 0 Calma 6 Sudoeste 0 -- -- 89
2020-03-21 20:00:00 12.9 0 Calma 7 Oeste 0 -- -- 89
2020-03-21 19:00:00 13 4 Oeste 9 Oeste 0 -- -- 89
2020-03-21 18:00:00 13.2 4 Oeste 13 Oeste 0.2 -- -- 88
2020-03-21 17:00:00 13.2 3 Noroeste 19 Noroeste 1.3 -- -- 89
2020-03-21 16:00:00 13.2 6 Noroeste 17 Oeste 0.3 -- -- 90
2020-03-21 15:00:00 13.1 9 Oeste 22 Oeste 0.2 -- -- 90
2020-03-21 14:00:00 13.3 5 Noroeste 12 Noroeste 0 -- -- 92
2020-03-21 13:00:00 12.4 2 Noroeste 14 Oeste 0 -- -- 94
2020-03-21 12:00:00 12.2 4 Oeste 14 Oeste 0 -- -- 94
2020-03-21 11:00:00 11.8 3 Noroeste 12 Oeste 0 -- -- 94
2020-03-21 10:00:00 11.6 5 Oeste 11 Oeste 0 -- -- 94
2020-03-21 09:00:00 11.8 2 Oeste 7 Sudoeste 0 -- -- 94
2020-03-21 08:00:00 11.3 2 Sudoeste 8 Sudeste 0 -- -- 94
2020-03-21 07:00:00 11.4 2 Sudeste 10 Sudoeste 0 -- -- 93
2020-03-21 06:00:00 11.9 0 Calma 8 Sudeste 0 -- -- 93
2020-03-21 05:00:00 12.1 3 Noroeste 10 Norte 0 -- -- 93
2020-03-21 04:00:00 12.1 5 Noroeste 12 Noroeste 0 -- -- 94
2020-03-21 03:00:00 12 4 Noroeste 10 Noroeste 0 -- -- 94
2020-03-21 02:00:00 12.1 5 Oeste 12 Noroeste 0 -- -- 94
2020-03-21 01:00:00 11.9 4 Noroeste 6 Noroeste 0 -- -- 94
2020-03-21 00:00:00 12.1 4 Noroeste 9 Norte 0 -- -- 94
2020-03-20 23:00:00 11.6 4 Sudeste 15 Este 0 -- -- 94
2020-03-20 22:00:00 11.7 8 Este 17 Este 0 -- -- 94
2020-03-20 21:00:00 11.7 13 Este 23 Este 0 -- -- 94
2020-03-20 20:00:00 12.1 18 Este 24 Este 0 -- -- 94
2020-03-20 19:00:00 12.5 15 Este 23 Este 0 -- -- 93
2020-03-20 18:00:00 13.2 15 Este 21 Este 0 -- -- 92
2020-03-20 17:00:00 13.1 14 Este 21 Este 0 -- -- 92
2020-03-20 16:00:00 13.5 14 Este 19 Este 0 -- -- 92
2020-03-20 15:00:00 13.3 14 Este 19 Este 0 -- -- 91
2020-03-20 14:00:00 13.5 12 Este 17 Este 0 -- -- 92
2020-03-20 13:00:00 13 8 Este 12 Este 0 -- -- 94
2020-03-20 12:00:00 12.6 7 Este 11 Este 0 -- -- 94
2020-03-20 11:00:00 12.6 0 Calma 7 Noroeste 0 -- -- 94
2020-03-20 10:00:00 12.3 4 Oeste 6 Oeste 0.1 -- -- 94
2020-03-20 09:00:00 11.8 4 Sudeste 7 Sudeste 0 -- -- 94
2020-03-20 08:00:00 11.8 0 Calma 8 Sudoeste 0 -- -- 94
2020-03-20 07:00:00 11.5 5 Sur 9 Sur 0 -- -- 94
2020-03-20 06:00:00 11.8 3 Sur 8 Sur 0 -- -- 94
2020-03-20 05:00:00 11.9 0 Calma 5 Sudeste 0 -- -- 94
2020-03-20 04:00:00 11.9 2 Sudeste 7 Sudeste 0 -- -- 94
2020-03-20 03:00:00 12.1 3 Este 8 Este 0 -- -- 94
2020-03-20 02:00:00 11.9 0 Calma 9 Este 0 -- -- 94
2020-03-20 01:00:00 12.2 0 Calma 5 Este 0 -- -- 94
2020-03-20 00:00:00 12.2 2 Este 8 Este 0 -- -- 94
2020-03-19 23:00:00 12 0 Calma 9 Sudeste 0 -- -- 94
2020-03-19 22:00:00 12.3 0 Calma 13 Este 0 -- -- 94
2020-03-19 21:00:00 11.8 6 Este 12 Este 0.2 -- -- 94
2020-03-19 20:00:00 11.8 8 Este 18 Sudeste 0 -- -- 94
2020-03-19 19:00:00 12.1 10 Este 18 Este 0.1 -- -- 94
2020-03-19 18:00:00 12.3 10 Este 17 Este 0 -- -- 94
2020-03-19 17:00:00 12.4 9 Este 15 Este 1.4 -- -- 94
2020-03-19 16:00:00 12.5 7 Este 15 Este 0.1 -- -- 94
2020-03-19 15:00:00 12.4 9 Este 19 Este 0 -- -- 94
2020-03-19 14:00:00 12.6 12 Este 17 Este 0 -- -- 94
2020-03-19 13:00:00 12.3 8 Este 13 Este 0 -- -- 94
2020-03-19 12:00:00 11.9 8 Este 13 Este 0 -- -- 94
2020-03-19 11:00:00 11.8 6 Este 12 Este 0 -- -- 94
2020-03-19 10:00:00 12 5 Este 9 Sudeste 0 -- -- 94
2020-03-19 09:00:00 11.7 2 Este 10 Este 0 -- -- 94
2020-03-19 08:00:00 11.6 5 Este 10 Este 0 -- -- 94
2020-03-19 07:00:00 11.7 2 Sudeste 6 Sudeste 0 -- -- 93
2020-03-19 06:00:00 11.4 4 Sudeste 8 Sudeste 0 -- -- 93
2020-03-19 05:00:00 11.4 0 Calma 9 Sudeste 0 -- -- 93
2020-03-19 04:00:00 11.7 3 Este 8 Este 0 -- -- 93
2020-03-19 03:00:00 12 0 Calma 7 Sudeste 0 -- -- 93
2020-03-19 02:00:00 11.7 0 Calma 8 Noroeste 0 -- -- 93
2020-03-19 01:00:00 11.8 0 Calma 9 Este 0 -- -- 93
2020-03-19 00:00:00 12 0 Calma 10 Este 0 -- -- 93
2020-03-18 23:00:00 12 5 Este 11 Sudeste 0 -- -- 93
2020-03-18 22:00:00 11.9 7 Este 14 Este 0 -- -- 93
2020-03-18 21:00:00 12.1 9 Este 17 Este 0 -- -- 93
2020-03-18 20:00:00 12.5 9 Este 15 Este 0.1 -- -- 91
2020-03-18 19:00:00 13.1 9 Este 17 Este 0 -- -- 91
2020-03-18 18:00:00 13.2 10 Este 17 Este 0 -- -- 90
2020-03-18 17:00:00 13.8 8 Este 18 Este 0 -- -- 90
2020-03-18 16:00:00 13.8 12 Este 18 Este 0 -- -- 90
2020-03-18 15:00:00 13.9 11 Este 19 Este 0 -- -- 90
2020-03-18 14:00:00 13.7 10 Este 19 Este 0 -- -- 90
2020-03-18 13:00:00 14.1 13 Este 19 Este 0 -- -- 89
2020-03-18 12:00:00 13.9 12 Este 23 Este 0 -- -- 90
2020-03-18 11:00:00 12.7 13 Este 21 Sudeste 0 -- -- 91
2020-03-18 10:00:00 12.4 9 Este 12 Sudeste 0 -- -- 91
2020-03-18 09:00:00 12 3 Sur 9 Sudoeste 0 -- -- 92
2020-03-18 08:00:00 12.2 2 Sur 8 Sudeste 0 -- -- 92
2020-03-18 07:00:00 12.4 5 Sudeste 13 Sudeste 0 -- -- 91
2020-03-18 06:00:00 12.3 8 Sudeste 14 Sudeste 0 -- -- 92
2020-03-18 05:00:00 12.5 6 Este 15 Este 0 -- -- 93
2020-03-18 04:00:00 12.7 10 Este 18 Este 0 -- -- 93
2020-03-18 03:00:00 12.7 11 Este 16 Este 0 -- -- 93
2020-03-18 02:00:00 13.1 12 Este 21 Este 0 -- -- 93
2020-03-18 01:00:00 13 15 Este 25 Este 0 -- -- 93
2020-03-18 00:00:00 13.1 18 Este 28 Este 0 -- -- 92
2020-03-17 23:00:00 13.1 19 Este 31 Este 0 -- -- 91
2020-03-17 22:00:00 12.8 22 Este 35 Este 0 -- -- 91
2020-03-17 21:00:00 12.9 24 Este 37 Este 0 -- -- 91
2020-03-17 20:00:00 12.9 23 Este 42 Este 0 -- -- 91
2020-03-17 19:00:00 13 26 Este 43 Este 0 -- -- 91
2020-03-17 18:00:00 13.2 22 Este 35 Este 0 -- -- 89
2020-03-17 17:00:00 13.6 21 Este 32 Este 0 -- -- 87
2020-03-17 16:00:00 13.1 19 Este 32 Este 0 -- -- 90
2020-03-17 15:00:00 13.1 18 Este 30 Este 0 -- -- 89
2020-03-17 14:00:00 13.3 16 Este 26 Este 0 -- -- 88
2020-03-17 13:00:00 13 12 Este 22 Este 0 -- -- 90
2020-03-17 12:00:00 12.7 12 Este 18 Este 0 -- -- 89
2020-03-17 11:00:00 11.6 9 Sudeste 17 Sudeste 0 -- -- 89
2020-03-17 10:00:00 10.7 14 Sudeste 19 Sudeste 0 -- -- 90
2020-03-17 09:00:00 10.1 15 Sudeste 22 Sudeste 0 -- -- 91
2020-03-17 08:00:00 9.6 5 Sur 18 Sudeste 0 -- -- 90
2020-03-17 07:00:00 10.6 14 Sudeste 18 Sudeste 0 -- -- 90
2020-03-17 06:00:00 10.7 10 Sudeste 25 Este 0 -- -- 86
2020-03-17 05:00:00 11.7 12 Sudeste 27 Este 0 -- -- 78
2020-03-17 04:00:00 11.3 12 Este 24 Este 0 -- -- 76
2020-03-17 03:00:00 11.1 8 Este 25 Este 0 -- -- 76
2020-03-17 02:00:00 11 15 Este 25 Sudeste 0 -- -- 76
2020-03-17 01:00:00 11 10 Sudeste 25 Sudeste 0 -- -- 75
2020-03-17 00:00:00 11 13 Sudeste 32 Nordeste 0 -- -- 74
2020-03-16 23:00:00 11 10 Este 32 Este 0 -- -- 72
2020-03-16 22:00:00 11.1 11 Este 26 Sudeste 0 -- -- 74
2020-03-16 21:00:00 11 9 Este 30 Sudeste 0 -- -- 71
2020-03-16 20:00:00 11.2 11 Este 30 Norte 0 -- -- 70
2020-03-16 19:00:00 11.2 10 Sudeste 28 Este 0 -- -- 72
2020-03-16 18:00:00 11.5 11 Sudeste 32 Este 0 -- -- 68
2020-03-16 17:00:00 12.1 10 Sudeste 23 Este 0 -- -- 68
2020-03-16 16:00:00 12.8 7 Sudeste 26 Sudeste 0 -- -- 70
2020-03-16 15:00:00 13.7 9 Sudeste 30 Sudeste 0 -- -- 70
2020-03-16 14:00:00 13.4 9 Sudeste 29 Sudeste 0 -- -- 69
2020-03-16 13:00:00 12.5 10 Nordeste 33 Este 0 -- -- 72
2020-03-16 12:00:00 12.9 6 Sur 26 Sudeste 0 -- -- 76
2020-03-16 11:00:00 11.7 8 Sur 23 Sur 0.2 -- -- 84
2020-03-16 10:00:00 11.4 9 Sur 32 Sudeste 0 -- -- 77
2020-03-16 09:00:00 11.5 10 Sur 27 Sur 0 -- -- 77
2020-03-16 08:00:00 11 9 Sur 27 Sur 0 -- -- 77
2020-03-16 07:00:00 10.8 8 Sur 31 Sudeste 0 -- -- 77
2020-03-16 06:00:00 10.6 9 Sur 26 Norte 0.1 -- -- 78
2020-03-16 05:00:00 8.7 10 Oeste 24 Este 0.1 -- -- 89
2020-03-16 04:00:00 9.6 4 Este 31 Noroeste 0.2 -- -- 84
2020-03-16 03:00:00 7.1 16 Sudoeste 21 Sudoeste 0.1 -- -- 92
2020-03-16 02:00:00 7.1 15 Sudoeste 18 Sudoeste 0 -- -- 90
2020-03-16 01:00:00 7.3 16 Sudoeste 22 Sudoeste 0.2 -- -- 89
2020-03-16 00:00:00 7.2 16 Sudoeste 25 Sudoeste 0.3 -- -- 90
2020-03-15 23:00:00 7.1 14 Sudoeste 28 Sudoeste 0 -- -- 92
2020-03-15 22:00:00 6.4 19 Sudoeste 28 Sudoeste 0.1 -- -- 92
2020-03-15 21:00:00 6.8 20 Sudoeste 30 Sudoeste 1.1 -- -- 92
2020-03-15 20:00:00 6.8 19 Sudoeste 31 Sudoeste 0.8 -- -- 92
2020-03-15 19:00:00 7.4 21 Sudoeste 41 Oeste 0.9 -- -- 91
2020-03-15 18:00:00 8.3 18 Noroeste 61 Noroeste 0.7 -- -- 90
2020-03-15 17:00:00 9.7 24 Noroeste 55 Noroeste 0.3 -- -- 83
2020-03-15 16:00:00 10.4 31 Noroeste 52 Noroeste 0 -- -- 79
2020-03-15 15:00:00 10.5 34 Noroeste 61 Noroeste 0 -- -- 89
2020-03-15 14:00:00 11.4 20 Norte 64 Noroeste 0.1 -- -- 91
2020-03-15 13:00:00 17.3 17 Sudoeste 31 Sudoeste 0 -- -- 55
2020-03-15 12:00:00 15.4 21 Sudoeste 34 Sudoeste 0 -- -- 71
2020-03-15 11:00:00 13.3 15 Sudoeste 31 Oeste 0 -- -- 81
2020-03-15 10:00:00 12.9 14 Noroeste 35 Noroeste 0 -- -- 85
2020-03-15 09:00:00 12.3 17 Noroeste 35 Noroeste 0 -- -- 88
2020-03-15 08:00:00 11.6 19 Oeste 38 Oeste 0 -- -- 93
2020-03-15 07:00:00 10.9 19 Oeste 34 Noroeste 0 -- -- 93
2020-03-15 06:00:00 10.5 15 Oeste 25 Oeste 0 -- -- 94
2020-03-15 05:00:00 9.2 12 Oeste 16 Oeste 0 -- -- 91
2020-03-15 04:00:00 10.1 0 Calma 5 Sur 0 -- -- 88
2020-03-15 03:00:00 10.8 5 Sudoeste 10 Sudoeste 0 -- -- 87
2020-03-15 02:00:00 10.5 9 Sudoeste 11 Sudoeste 0 -- -- 88
2020-03-15 01:00:00 11.1 7 Sudeste 19 Este 0 -- -- 91
2020-03-15 00:00:00 11.4 15 Este 23 Este 0 -- -- 91
2020-03-14 23:00:00 11.1 17 Sudeste 28 Sudeste 0 -- -- 91
2020-03-14 22:00:00 11.7 19 Sudeste 28 Este 0 -- -- 90
2020-03-14 21:00:00 11.7 21 Este 28 Este 0 -- -- 87
2020-03-14 20:00:00 11.8 18 Este 25 Este 0 -- -- 85
2020-03-14 19:00:00 12.1 17 Este 25 Este 0 -- -- 83
2020-03-14 18:00:00 13.2 14 Este 21 Este 0 -- -- 76
2020-03-14 17:00:00 14 9 Este 18 Este 0 -- -- 73
2020-03-14 16:00:00 13.9 6 Sudeste 15 Sudeste 0 -- -- 74
2020-03-14 15:00:00 15.7 3 Sur 10 Sudeste 0 -- -- 71
2020-03-14 14:00:00 14.7 3 Norte 11 Noroeste 0 -- -- 72
2020-03-14 13:00:00 14.3 7 Noroeste 14 Oeste 0 -- -- 68
2020-03-14 12:00:00 14.3 9 Oeste 17 Sudoeste 0 -- -- 65
2020-03-14 11:00:00 13.7 10 Sudoeste 18 Sudoeste 0 -- -- 68
2020-03-14 10:00:00 12.2 14 Sudoeste 20 Sudoeste 0 -- -- 75
2020-03-14 09:00:00 10.8 14 Sudoeste 21 Sudoeste 0 -- -- 82
2020-03-14 08:00:00 9.6 15 Sudoeste 19 Sudoeste 0 -- -- 85
2020-03-14 07:00:00 10.1 13 Sudoeste 17 Sudoeste 0 -- -- 88
2020-03-14 06:00:00 10.2 10 Sudoeste 15 Sudoeste 0 -- -- 93
2020-03-14 05:00:00 10.8 10 Sudoeste 13 Sudoeste 0 -- -- 93
2020-03-14 04:00:00 10.8 6 Sudoeste 9 Sudoeste 0 -- -- 93
2020-03-14 03:00:00 11.4 3 Sudoeste 6 Sudoeste 0 -- -- 92
2020-03-14 02:00:00 10.8 5 Oeste 8 Oeste 0 -- -- 91
2020-03-14 01:00:00 9.8 5 Oeste 7 Sudoeste 0 -- -- 92
2020-03-14 00:00:00 11.1 0 Calma 3 Sudoeste 0 -- -- 90
2020-03-13 23:00:00 11.1 4 Sudeste 17 Sudeste 0 -- -- 89
2020-03-13 22:00:00 10.6 12 Sudeste 15 Este 0 -- -- 89
2020-03-13 21:00:00 11.4 12 Este 21 Este 0 -- -- 88
2020-03-13 20:00:00 11.7 15 Este 26 Este 0 -- -- 87
2020-03-13 19:00:00 12.3 17 Este 28 Este 0 -- -- 84
2020-03-13 18:00:00 13 20 Este 30 Este 0 -- -- 82
2020-03-13 17:00:00 13.6 17 Este 27 Este 0 -- -- 79
2020-03-13 16:00:00 13.5 18 Este 30 Este 0 -- -- 79
2020-03-13 15:00:00 13.5 18 Este 33 Este 0 -- -- 78
2020-03-13 14:00:00 13.6 18 Este 31 Sudeste 0 -- -- 78
2020-03-13 13:00:00 13.1 18 Este 33 Este 0 -- -- 76
2020-03-13 12:00:00 13 18 Este 34 Este 0 -- -- 77
2020-03-13 11:00:00 12.9 18 Este 34 Este 0 -- -- 84
2020-03-13 10:00:00 12.5 23 Este 37 Este 0 -- -- 79
2020-03-13 09:00:00 12.1 20 Este 35 Este 0 -- -- 79
2020-03-13 08:00:00 12 22 Este 39 Este 0 -- -- 81
2020-03-13 07:00:00 11.8 20 Este 37 Este 0 -- -- 79
2020-03-13 06:00:00 11.7 17 Este 35 Este 0 -- -- 79
2020-03-13 05:00:00 11.7 15 Este 31 Este 0 -- -- 79
2020-03-13 04:00:00 11.4 12 Este 28 Este 0 -- -- 85
2020-03-13 03:00:00 11.5 10 Este 24 Sudeste 0 -- -- 85
2020-03-13 02:00:00 11.7 8 Sudeste 24 Este 0 -- -- 82
2020-03-13 01:00:00 11.9 11 Este 19 Este 0 -- -- 79
2020-03-13 00:00:00 11.9 8 Este 27 Sudeste 0 -- -- 77
2020-03-12 23:00:00 12 7 Este 27 Sudeste 0 -- -- 77
2020-03-12 22:00:00 12 6 Sudeste 21 Nordeste 0 -- -- 78
2020-03-12 21:00:00 12.1 8 Este 29 Norte 0 -- -- 82
2020-03-12 20:00:00 11.8 7 Este 31 Sudeste 0 -- -- 87
2020-03-12 19:00:00 11.2 8 Sudeste 21 Este 0.1 -- -- 93
2020-03-12 18:00:00 11.8 6 Sudeste 18 Sur 0 -- -- 93
2020-03-12 17:00:00 12.5 6 Sur 19 Sur 0 -- -- 91
2020-03-12 16:00:00 12.7 7 Sudeste 22 Sudeste 0 -- -- 93
2020-03-12 15:00:00 14.1 4 Sudeste 14 Nordeste 0 -- -- 89
2020-03-12 14:00:00 14.3 0 Calma 16 Norte 0 -- -- 90
2020-03-12 13:00:00 14.7 2 Sudeste 14 Noroeste 0 -- -- 90
2020-03-12 12:00:00 14.3 0 Calma 12 Norte 0 -- -- 92
2020-03-12 11:00:00 13.6 4 Noroeste 15 Noroeste 0 -- -- 93
2020-03-12 10:00:00 13.6 7 Noroeste 24 Noroeste 0 -- -- 92
2020-03-12 09:00:00 13.3 10 Noroeste 19 Noroeste 0 -- -- 94
2020-03-12 08:00:00 14 8 Noroeste 19 Noroeste 0 -- -- 92
2020-03-12 07:00:00 14.1 6 Noroeste 14 Noroeste 0 -- -- 90
2020-03-12 06:00:00 14.6 8 Noroeste 28 Sudoeste 0 -- -- 90
2020-03-12 05:00:00 14.7 8 Sudoeste 13 Sudoeste 0 -- -- 87
2020-03-12 04:00:00 14.7 10 Sudoeste 13 Sudoeste 0 -- -- 88
2020-03-11 11:00:00 15.7 6 Este 10 Este 0 -- -- 82
2020-03-11 10:00:00 16.2 3 Nordeste 6 Nordeste 0 -- -- 81
2020-03-11 09:00:00 14.3 0 Calma 6 Oeste 0 -- -- 88
2020-03-11 08:00:00 12.9 4 Oeste 9 Oeste 0 -- -- 89
2020-03-11 07:00:00 12.4 6 Oeste 12 Sudoeste 0 -- -- 88
2020-03-11 06:00:00 12.6 10 Sudoeste 14 Sudoeste 0 -- -- 88
2020-03-11 05:00:00 13.1 12 Sudoeste 15 Sudoeste 0 -- -- 87
2020-03-11 04:00:00 12.7 13 Sudoeste 17 Sudoeste 0 -- -- 84
2020-03-11 03:00:00 14 7 Sur 12 Sudoeste 0 -- -- 78
2020-03-11 02:00:00 13.2 8 Sur 14 Sudoeste 0 -- -- 80
2020-03-11 01:00:00 13.5 6 Sur 14 Sur 0 -- -- 82
2020-03-11 00:00:00 13.6 6 Sur 13 Sur 0 -- -- 82
2020-03-10 23:00:00 13.7 4 Sur 8 Sur 0 -- -- 82
2020-03-10 22:00:00 14.2 3 Sur 11 Sudeste 0 -- -- 77
2020-03-10 21:00:00 14.3 7 Sudeste 10 Sudeste 0 -- -- 76
2020-03-10 20:00:00 13.8 4 Sur 11 Sudeste 0 -- -- 81
2020-03-10 19:00:00 14 8 Sudeste 14 Sudeste 0 -- -- 81
2020-03-10 18:00:00 14.3 9 Sudeste 14 Sudeste 0 -- -- 87
2020-03-10 17:00:00 14.7 12 Este 16 Este 0 -- -- 83
2020-03-10 16:00:00 14.9 12 Este 18 Sudeste 0 -- -- 79
2020-03-10 15:00:00 14.7 13 Sudeste 17 Sudeste 0 -- -- 79
2020-03-10 14:00:00 14.4 5 Nordeste 9 Noroeste 0 -- -- 81
2020-03-10 13:00:00 14.7 6 Noroeste 14 Noroeste 0 -- -- 77
2020-03-10 12:00:00 14.1 4 Noroeste 10 Oeste 0 -- -- 85
2020-03-10 11:00:00 13.7 3 Noroeste 10 Noroeste 0 -- -- 86
2020-03-10 10:00:00 13.5 0 Calma 5 Noroeste 0 -- -- 89
2020-03-10 09:00:00 12.3 2 Sudoeste 10 Noroeste 0.7 -- -- 91
2020-03-10 08:00:00 12.2 5 Noroeste 11 Noroeste 0 -- -- 92
2020-03-10 07:00:00 11 5 Sur 13 Sudoeste 0 -- -- 92
2020-03-10 06:00:00 12.1 9 Sudoeste 13 Sudoeste 0 -- -- 92
2020-03-10 05:00:00 12 9 Sudoeste 12 Sudoeste 0 -- -- 91
2020-03-10 04:00:00 12 7 Sudoeste 10 Sudoeste 0 -- -- 91
2020-03-10 03:00:00 11.8 8 Sudoeste 14 Oeste 0 -- -- 91
2020-03-10 02:00:00 11.8 9 Sudoeste 14 Oeste 2.2 -- -- 91
2020-03-10 01:00:00 11.4 11 Oeste 16 Oeste 0 -- -- 91
2020-03-10 00:00:00 11.4 10 Sudoeste 16 Oeste 0 -- -- 92
2020-03-09 23:00:00 11.7 11 Sudoeste 15 Oeste 0 -- -- 91
2020-03-09 22:00:00 12 11 Sudoeste 14 Sudoeste 0 -- -- 92
2020-03-09 21:00:00 12.8 9 Oeste 21 Oeste 0 -- -- 90
2020-03-09 20:00:00 13.2 10 Oeste 22 Oeste 0 -- -- 89
2020-03-09 19:00:00 13.5 10 Noroeste 23 Noroeste 0 -- -- 85
2020-03-09 18:00:00 13.9 13 Oeste 26 Noroeste 0 -- -- 78
2020-03-09 17:00:00 14.2 17 Noroeste 30 Noroeste 0 -- -- 77
2020-03-09 16:00:00 14 18 Noroeste 35 Noroeste 0 -- -- 77
2020-03-09 15:00:00 14.1 13 Noroeste 32 Oeste 0 -- -- 73
2020-03-09 14:00:00 14.2 16 Noroeste 44 Noroeste 0 -- -- 71
2020-03-09 13:00:00 14.4 17 Oeste 38 Oeste 0 -- -- 67
2020-03-09 12:00:00 13.9 25 Oeste 41 Oeste 0 -- -- 67
2020-03-09 11:00:00 13.1 26 Oeste 43 Oeste 0 -- -- 72
2020-03-09 10:00:00 12.9 27 Oeste 42 Oeste 0 -- -- 73
2020-03-09 09:00:00 12.3 17 Oeste 27 Oeste 0 -- -- 77
2020-03-09 08:00:00 12.2 17 Sudoeste 34 Oeste 0 -- -- 77
2020-03-09 07:00:00 12.6 26 Oeste 39 Oeste 0 -- -- 76
2020-03-09 06:00:00 12.6 19 Oeste 55 Oeste 0 -- -- 80
2020-03-09 05:00:00 12.6 30 Oeste 50 Oeste 0 -- -- 81
2020-03-09 04:00:00 12.5 23 Oeste 46 Oeste 0 -- -- 86
2020-03-09 03:00:00 13 21 Noroeste 46 Oeste 0 -- -- 79
2020-03-09 02:00:00 13 21 Noroeste 60 Noroeste 0 -- -- 79
2020-03-09 01:00:00 13.2 19 Noroeste 51 Oeste 0 -- -- 80
2020-03-09 00:00:00 12.7 20 Noroeste 55 Noroeste 0 -- -- 82